Time;durP1;ratioP1;P1;durP2;ratioP2;P2;SDS_P1;SDS_P2;PMS_P1;PMS_P2;Temp;Humidity;BMP_temperature;BMP_pressure;BME280_temperature;BME280_humidity;BME280_pressure;Samples;Min_cycle;Max_cycle;Signal;HPM_P1;HPM_P2
2021/09/15 00:02:07;;;;;;;50.15;31.27;;;18.10;99.90;;;;;;5117687;28;20035;-74
2021/09/15 00:04:32;;;;;;;55.05;34.72;;;18.00;99.90;;;;;;5082525;28;20499;-74
2021/09/15 00:06:58;;;;;;;49.85;33.03;;;18.00;99.90;;;;;;5119541;28;20031;-78
2021/09/15 00:09:23;;;;;;;49.03;33.55;;;18.00;99.90;;;;;;5121426;28;20119;-77
2021/09/15 00:11:49;;;;;;;47.58;33.47;;;18.10;99.90;;;;;;5121120;28;20115;-74
2021/09/15 00:14:15;;;;;;;50.17;33.67;;;18.00;99.90;;;;;;5116342;28;20038;-75
2021/09/15 00:16:40;;;;;;;52.38;34.30;;;18.00;99.90;;;;;;5114694;28;20024;-73
2021/09/15 00:19:06;;;;;;;56.95;34.35;;;18.00;99.90;;;;;;5097080;28;20038;-73
2021/09/15 00:21:31;;;;;;;45.45;31.73;;;17.90;99.90;;;;;;5113568;28;20027;-73
2021/09/15 00:23:57;;;;;;;45.47;30.65;;;18.00;99.90;;;;;;5113617;28;20016;-76
2021/09/15 00:26:23;;;;;;;50.53;33.40;;;17.90;99.90;;;;;;5096688;28;20028;-75
2021/09/15 00:28:48;;;;;;;48.28;32.28;;;18.00;99.90;;;;;;5097179;28;20477;-76
2021/09/15 00:31:14;;;;;;;54.85;34.72;;;18.00;99.90;;;;;;5080822;28;20074;-79
2021/09/15 00:33:40;;;;;;;53.28;33.75;;;18.00;99.90;;;;;;5081372;28;20042;-82
2021/09/15 00:36:06;;;;;;;44.22;33.15;;;18.00;99.90;;;;;;5114613;28;20401;-74
2021/09/15 00:38:32;;;;;;;52.83;35.08;;;18.00;99.90;;;;;;5081093;28;20031;-75
2021/09/15 00:40:57;;;;;;;49.38;34.05;;;18.10;99.90;;;;;;5114956;28;20023;-81
2021/09/15 00:43:23;;;;;;;52.90;32.72;;;18.10;99.90;;;;;;5097642;28;20024;-81
2021/09/15 00:45:49;;;;;;;47.13;32.83;;;18.10;99.90;;;;;;5097005;28;20488;-75
2021/09/15 00:48:15;;;;;;;47.63;32.90;;;18.10;99.90;;;;;;5115654;28;20054;-81
2021/09/15 00:50:41;;;;;;;46.30;32.22;;;18.20;99.90;;;;;;5116190;28;20032;-73
2021/09/15 00:53:08;;;;;;;48.78;32.00;;;18.20;99.90;;;;;;5079690;28;20024;-79
2021/09/15 00:55:34;;;;;;;42.40;32.65;;;18.30;99.90;;;;;;5097048;28;20084;-78
2021/09/15 00:57:59;;;;;;;46.03;32.95;;;18.30;99.90;;;;;;5096840;28;20024;-74
2021/09/15 01:00:25;;;;;;;55.72;33.80;;;18.30;99.90;;;;;;5078716;28;20027;-74
2021/09/15 01:02:51;;;;;;;48.78;33.10;;;18.40;99.90;;;;;;5112832;28;20019;-74
2021/09/15 01:05:17;;;;;;;44.70;32.88;;;18.50;99.90;;;;;;5112492;28;20047;-75
2021/09/15 01:07:42;;;;;;;44.63;32.63;;;18.50;99.90;;;;;;5114197;28;20430;-74
2021/09/15 01:10:08;;;;;;;44.35;31.42;;;18.50;99.90;;;;;;5114377;28;20027;-74
2021/09/15 01:12:34;;;;;;;44.95;32.65;;;18.50;99.90;;;;;;5096263;28;20024;-74
2021/09/15 01:15:00;;;;;;;48.58;33.17;;;18.50;99.90;;;;;;5095879;28;20382;-74
2021/09/15 01:17:25;;;;;;;42.35;31.77;;;18.50;99.90;;;;;;5095692;28;20038;-73
2021/09/15 01:19:51;;;;;;;47.00;32.53;;;18.50;99.90;;;;;;5095808;28;20525;-73
2021/09/15 01:22:17;;;;;;;41.58;31.40;;;18.40;99.90;;;;;;5096143;28;20015;-73
2021/09/15 01:24:42;;;;;;;45.45;31.48;;;18.40;99.90;;;;;;5112694;28;20032;-73
2021/09/15 01:27:08;;;;;;;45.30;30.50;;;18.40;99.90;;;;;;5112645;28;20494;-75
2021/09/15 01:29:34;;;;;;;44.30;30.55;;;18.30;99.90;;;;;;5096326;28;20040;-73
2021/09/15 01:32:06;;;;;;;45.22;30.70;;;18.20;99.90;;;;;;5112882;28;20019;-76
2021/09/15 01:34:35;;;;;;;43.90;30.88;;;18.20;99.90;;;;;;5112356;28;20035;-74
2021/09/15 01:37:01;;;;;;;48.13;32.03;;;18.10;99.90;;;;;;5112455;28;20020;-73
2021/09/15 01:39:26;;;;;;;42.53;30.77;;;18.10;99.90;;;;;;5112859;28;20564;-73
2021/09/15 01:41:53;;;;;;;41.95;30.63;;;18.00;99.90;;;;;;5114227;28;20032;-77
2021/09/15 01:44:18;;;;;;;45.47;30.80;;;18.00;99.90;;;;;;5112498;28;20060;-76
2021/09/15 01:46:44;;;;;;;41.85;29.70;;;18.00;99.90;;;;;;5096369;28;20378;-85
2021/09/15 01:49:09;;;;;;;42.33;28.85;;;17.90;99.90;;;;;;5096217;28;20031;-83
2021/09/15 01:51:39;;;;;;;43.00;30.27;;;17.90;99.90;;;;;;5095883;28;20028;-82
2021/09/15 01:54:05;;;;;;;40.45;29.48;;;17.80;99.90;;;;;;5116310;28;20047;-85
2021/09/15 01:56:31;;;;;;;44.70;30.90;;;17.80;99.90;;;;;;5116970;28;20473;-86
2021/09/15 01:58:56;;;;;;;49.88;32.42;;;17.80;99.90;;;;;;5100204;28;20031;-80
2021/09/15 02:01:22;;;;;;;50.30;31.67;;;17.70;99.90;;;;;;5116995;28;20035;-86
2021/09/15 02:03:47;;;;;;;43.90;31.35;;;17.70;99.90;;;;;;5099743;28;20020;-84
2021/09/15 02:06:13;;;;;;;45.80;31.50;;;17.70;99.90;;;;;;5116909;28;20049;-86
2021/09/15 02:08:39;;;;;;;43.55;31.02;;;17.60;99.90;;;;;;5100412;28;20103;-85
2021/09/15 02:11:04;;;;;;;47.63;30.30;;;17.50;99.90;;;;;;5102233;28;20072;-82
2021/09/15 02:13:30;;;;;;;44.95;32.58;;;17.50;99.90;;;;;;5103636;28;20552;-81
2021/09/15 02:15:55;;;;;;;45.30;32.05;;;17.50;99.90;;;;;;5100280;28;20032;-81
2021/09/15 02:18:21;;;;;;;44.50;30.70;;;17.50;99.90;;;;;;5117023;28;20024;-84
2021/09/15 02:20:46;;;;;;;44.97;31.23;;;17.50;99.90;;;;;;5100396;28;20389;-85
2021/09/15 02:23:12;;;;;;;57.28;33.78;;;17.50;99.90;;;;;;5082767;28;20035;-85
2021/09/15 02:25:38;;;;;;;49.38;31.55;;;17.40;99.90;;;;;;5116333;28;20125;-84
2021/09/15 02:28:03;;;;;;;47.25;31.88;;;17.50;99.90;;;;;;5099520;28;20030;-87
2021/09/15 02:30:29;;;;;;;46.42;30.05;;;17.40;99.90;;;;;;5083030;28;20482;-83
2021/09/15 02:32:55;;;;;;;42.33;29.88;;;17.30;99.90;;;;;;5116402;28;20473;-85
2021/09/15 02:35:20;;;;;;;40.20;29.73;;;17.30;99.90;;;;;;5115634;28;20043;-74
2021/09/15 02:37:46;;;;;;;42.97;29.27;;;17.30;99.90;;;;;;5081931;28;20119;-77
2021/09/15 02:40:12;;;;;;;45.03;31.40;;;17.30;99.90;;;;;;5117709;28;20031;-76
2021/09/15 02:42:37;;;;;;;44.92;30.13;;;17.30;99.90;;;;;;5100159;28;20020;-75
2021/09/15 02:45:03;;;;;;;42.53;30.58;;;17.30;99.90;;;;;;5099994;28;20061;-77
2021/09/15 02:47:29;;;;;;;48.67;32.00;;;17.30;99.90;;;;;;5101052;28;20024;-77
2021/09/15 02:49:55;;;;;;;41.40;30.75;;;17.40;99.90;;;;;;5082613;28;20091;-78
2021/09/15 02:52:20;;;;;;;40.42;29.67;;;17.40;99.90;;;;;;5115263;28;20119;-75
2021/09/15 02:54:46;;;;;;;44.38;29.63;;;17.50;99.90;;;;;;5081068;28;20047;-74
2021/09/15 02:57:11;;;;;;;41.00;28.63;;;17.50;99.90;;;;;;5097972;28;20024;-74
2021/09/15 02:59:37;;;;;;;39.55;28.30;;;17.60;99.90;;;;;;5114660;28;20035;-79
2021/09/15 03:02:02;;;;;;;41.70;30.80;;;17.60;99.90;;;;;;5114878;28;20054;-77
2021/09/15 03:04:28;;;;;;;40.45;28.75;;;17.60;99.90;;;;;;5097229;28;20381;-72
2021/09/15 03:06:54;;;;;;;42.90;28.83;;;17.70;99.90;;;;;;5114798;28;20036;-71
2021/09/15 03:09:19;;;;;;;37.58;27.77;;;17.70;99.90;;;;;;5080554;28;20114;-71
2021/09/15 03:11:45;;;;;;;35.28;26.52;;;17.70;99.90;;;;;;5116234;28;20030;-71
2021/09/15 03:14:10;;;;;;;43.65;28.55;;;17.70;99.90;;;;;;5080455;28;20444;-71
2021/09/15 03:16:36;;;;;;;37.00;27.30;;;17.80;99.90;;;;;;5097193;28;20122;-71
2021/09/15 03:19:02;;;;;;;36.28;26.00;;;17.80;99.90;;;;;;5097257;28;20019;-71
2021/09/15 03:21:27;;;;;;;41.70;27.52;;;17.90;99.90;;;;;;5097247;28;20020;-71
2021/09/15 03:23:53;;;;;;;39.45;27.73;;;18.00;99.90;;;;;;5097107;28;20020;-72
2021/09/15 03:26:19;;;;;;;39.67;27.63;;;18.00;99.90;;;;;;5080237;28;20073;-73
2021/09/15 03:28:44;;;;;;;36.58;25.92;;;18.10;99.90;;;;;;5115484;28;20486;-72
2021/09/15 03:31:10;;;;;;;37.22;27.92;;;18.10;99.90;;;;;;5114169;28;20056;-72
2021/09/15 03:33:36;;;;;;;35.70;25.65;;;18.20;99.90;;;;;;5115784;28;20476;-71
2021/09/15 03:36:01;;;;;;;39.00;28.80;;;18.20;99.90;;;;;;5113971;28;20390;-71
2021/09/15 03:38:27;;;;;;;35.42;26.02;;;18.20;99.90;;;;;;5114083;28;20023;-72
2021/09/15 03:40:52;;;;;;;33.40;25.25;;;18.20;99.90;;;;;;5114069;28;20030;-72
2021/09/15 03:43:18;;;;;;;33.92;25.48;;;18.10;99.90;;;;;;5115177;28;20032;-73
2021/09/15 03:45:44;;;;;;;36.75;26.15;;;18.10;99.90;;;;;;5114123;28;20028;-71
2021/09/15 03:48:09;;;;;;;42.72;26.20;;;18.00;99.90;;;;;;5080299;28;20362;-70
2021/09/15 03:50:36;;;;;;;36.28;26.23;;;18.00;99.90;;;;;;5113991;28;20597;-71
2021/09/15 03:53:02;;;;;;;37.10;25.70;;;18.00;99.90;;;;;;5097484;28;20023;-71
2021/09/15 03:55:27;;;;;;;34.50;25.63;;;18.00;99.90;;;;;;5114755;28;20577;-71
2021/09/15 03:57:53;;;;;;;35.88;25.40;;;18.00;99.90;;;;;;5081985;28;20504;-71
2021/09/15 04:00:18;;;;;;;39.08;26.98;;;18.00;99.90;;;;;;5098979;28;20027;-71
2021/09/15 04:02:44;;;;;;;38.08;26.85;;;18.00;99.90;;;;;;5116476;28;20489;-72
2021/09/15 04:05:10;;;;;;;35.65;26.10;;;18.00;99.90;;;;;;5097229;28;20485;-71
2021/09/15 04:07:36;;;;;;;35.08;24.45;;;17.90;99.90;;;;;;5113792;28;20034;-71
2021/09/15 04:10:02;;;;;;;31.55;24.67;;;18.00;99.90;;;;;;5114666;28;20072;-71
2021/09/15 04:12:28;;;;;;;39.70;27.13;;;17.90;99.90;;;;;;5113887;28;20034;-70
2021/09/15 04:14:54;;;;;;;36.92;26.02;;;17.90;99.90;;;;;;5095556;28;20035;-70
2021/09/15 04:17:19;;;;;;;36.47;24.73;;;17.90;99.90;;;;;;5096107;28;20100;-72
2021/09/15 04:19:45;;;;;;;39.58;26.83;;;17.90;99.90;;;;;;5096081;28;20481;-71
2021/09/15 04:22:17;;;;;;;38.97;24.92;;;17.90;99.90;;;;;;5114333;28;20035;-71
2021/09/15 04:33:00;;;;;;;33.78;25.80;;;18.10;99.90;;;;;;5113154;28;20042;-71
2021/09/15 04:35:27;;;;;;;34.88;24.42;;;18.10;99.90;;;;;;5096010;28;20059;-72
2021/09/15 04:37:53;;;;;;;34.28;25.92;;;18.10;99.90;;;;;;5112899;28;20022;-71
2021/09/15 04:40:19;;;;;;;39.10;26.77;;;18.10;99.90;;;;;;5095691;28;20023;-71
2021/09/15 04:42:44;;;;;;;36.08;25.55;;;18.10;99.90;;;;;;5095776;28;20412;-72
2021/09/15 04:45:10;;;;;;;35.72;25.27;;;18.00;99.90;;;;;;5113228;28;20043;-70
2021/09/15 04:47:36;;;;;;;36.25;25.48;;;18.00;99.90;;;;;;5112645;28;20103;-71
2021/09/15 04:50:02;;;;;;;37.13;26.25;;;17.90;99.90;;;;;;5112690;28;20059;-71
2021/09/15 04:52:27;;;;;;;31.63;23.83;;;17.90;99.90;;;;;;5095577;28;20047;-71
2021/09/15 04:54:53;;;;;;;36.97;26.05;;;17.90;99.90;;;;;;5113408;28;20090;-71
2021/09/15 04:57:19;;;;;;;37.58;24.67;;;17.80;99.90;;;;;;5112412;28;20023;-72
2021/09/15 04:59:44;;;;;;;39.28;24.73;;;17.80;99.90;;;;;;5112820;28;20525;-71
2021/09/15 05:02:10;;;;;;;35.28;24.42;;;17.70;99.90;;;;;;5112562;28;20032;-72
2021/09/15 05:04:36;;;;;;;37.90;26.77;;;17.70;99.90;;;;;;5113582;28;20470;-71
2021/09/15 05:07:02;;;;;;;47.53;27.85;;;17.70;99.90;;;;;;5113979;28;20081;-70
2021/09/15 05:09:27;;;;;;;40.15;26.88;;;17.60;99.90;;;;;;5112339;28;20469;-71
2021/09/15 05:11:53;;;;;;;37.78;26.40;;;17.50;99.90;;;;;;5112439;28;20023;-72
2021/09/15 05:14:19;;;;;;;41.67;27.02;;;17.50;99.90;;;;;;5095572;28;20121;-71
2021/09/15 05:16:44;;;;;;;41.58;28.30;;;17.60;99.90;;;;;;5095407;28;20031;-71
2021/09/15 05:19:10;;;;;;;41.85;27.73;;;17.60;99.90;;;;;;5095463;28;20079;-72
2021/09/15 05:21:35;;;;;;;42.30;27.73;;;17.60;99.90;;;;;;5095679;28;20532;-71
2021/09/15 05:24:01;;;;;;;45.08;27.50;;;17.70;99.90;;;;;;5078627;28;20035;-70
2021/09/15 05:26:28;;;;;;;36.20;25.27;;;17.70;99.90;;;;;;5081590;28;20492;-81
2021/09/15 05:28:53;;;;;;;42.08;27.60;;;17.80;99.90;;;;;;5117513;28;20249;-77
2021/09/15 05:31:19;;;;;;;46.35;29.48;;;17.80;99.90;;;;;;5099922;28;20028;-82
2021/09/15 05:33:45;;;;;;;45.35;29.08;;;17.90;99.90;;;;;;5099871;28;20035;-78
2021/09/15 05:36:10;;;;;;;42.78;26.45;;;18.00;99.90;;;;;;5083248;28;20031;-76
2021/09/15 05:38:36;;;;;;;48.28;29.85;;;18.10;99.90;;;;;;5099567;28;20038;-79
2021/09/15 05:41:02;;;;;;;51.60;29.15;;;18.10;99.90;;;;;;5099818;28;20122;-75
2021/09/15 05:43:27;;;;;;;44.35;27.70;;;18.20;99.90;;;;;;5099361;28;20065;-77
2021/09/15 05:45:53;;;;;;;47.88;28.83;;;18.20;99.90;;;;;;5099766;28;20028;-75
2021/09/15 05:48:19;;;;;;;41.90;27.23;;;18.30;99.90;;;;;;5116728;28;20111;-77
2021/09/15 05:50:45;;;;;;;42.70;27.27;;;18.40;99.90;;;;;;5099348;28;20054;-75
2021/09/15 05:53:12;;;;;;;42.63;27.52;;;18.40;99.90;;;;;;5116330;28;20076;-73
2021/09/15 05:55:38;;;;;;;48.00;28.65;;;18.50;99.90;;;;;;5116018;28;20169;-70
2021/09/15 05:58:03;;;;;;;43.45;25.63;;;18.50;99.90;;;;;;5115765;28;20110;-72
2021/09/15 06:00:29;;;;;;;44.38;26.95;;;18.50;99.90;;;;;;5115885;28;20035;-72
2021/09/15 06:02:56;;;;;;;47.20;27.38;;;18.60;99.90;;;;;;5117010;28;20028;-73
2021/09/15 06:05:22;;;;;;;48.20;29.27;;;18.60;99.90;;;;;;5099178;28;20120;-71
2021/09/15 06:07:47;;;;;;;45.22;27.90;;;18.60;99.90;;;;;;5099115;28;20049;-78
2021/09/15 06:10:13;;;;;;;45.95;29.38;;;18.70;99.90;;;;;;5099477;28;20103;-86
2021/09/15 06:12:39;;;;;;;47.10;27.65;;;18.70;99.90;;;;;;5099385;28;20020;-80
2021/09/15 06:15:05;;;;;;;44.50;26.58;;;18.80;99.90;;;;;;5117811;28;20439;-82
2021/09/15 06:17:30;;;;;;;44.90;27.38;;;18.80;99.90;;;;;;5099057;28;20032;-77
2021/09/15 06:19:56;;;;;;;37.15;24.40;;;18.80;99.90;;;;;;5099296;28;20135;-77
2021/09/15 06:22:21;;;;;;;37.42;23.48;;;19.00;99.90;;;;;;5117950;28;20028;-74
2021/09/15 06:24:52;;;;;;;38.35;25.10;;;19.00;99.90;;;;;;5100781;28;20370;-79
2021/09/15 06:27:18;;;;;;;36.05;23.70;;;19.20;99.90;;;;;;5100450;28;20020;-75
2021/09/15 06:29:44;;;;;;;39.67;24.83;;;19.30;99.90;;;;;;5116817;28;20032;-75
2021/09/15 06:32:10;;;;;;;31.85;23.23;;;19.50;99.90;;;;;;5098709;28;20520;-72
2021/09/15 06:34:36;;;;;;;32.10;22.38;;;19.70;99.90;;;;;;5097747;28;20516;-78
2021/09/15 06:37:02;;;;;;;30.52;22.40;;;20.10;99.90;;;;;;5115396;28;20035;-78
2021/09/15 06:39:27;;;;;;;26.08;18.92;;;20.70;99.90;;;;;;5097868;28;20031;-77
2021/09/15 06:41:53;;;;;;;22.05;16.65;;;21.10;99.90;;;;;;5081355;28;20032;-78
2021/09/15 06:44:18;;;;;;;24.67;16.70;;;21.50;99.90;;;;;;5098573;28;20151;-73
2021/09/15 06:46:44;;;;;;;25.00;17.27;;;21.70;99.90;;;;;;5115000;28;20081;-77
2021/09/15 06:49:10;;;;;;;19.90;16.33;;;21.90;99.90;;;;;;5101364;28;20047;-80
2021/09/15 06:51:35;;;;;;;17.50;14.50;;;22.10;99.90;;;;;;5084194;28;20023;-75
2021/09/15 06:54:01;;;;;;;20.63;14.75;;;22.30;99.90;;;;;;5114864;28;20532;-74
2021/09/15 06:56:27;;;;;;;20.70;14.35;;;22.50;99.90;;;;;;5114837;28;20027;-77
2021/09/15 06:58:52;;;;;;;16.73;13.18;;;22.70;99.90;;;;;;5115016;28;20393;-77
2021/09/15 07:01:20;;;;;;;14.77;11.65;;;23.10;99.90;;;;;;5081151;28;20103;-78
2021/09/15 07:03:45;;;;;;;13.68;11.23;;;24.00;99.90;;;;;;5098011;28;20497;-79
2021/09/15 07:06:11;;;;;;;18.52;12.27;;;24.60;99.90;;;;;;5114709;28;20016;-76
2021/09/15 07:08:36;;;;;;;15.63;11.02;;;24.70;99.90;;;;;;5080705;28;20047;-76
2021/09/15 07:11:02;;;;;;;12.70;11.40;;;24.40;99.90;;;;;;5097387;28;20592;-75
2021/09/15 07:13:29;;;;;;;12.07;10.80;;;24.00;99.90;;;;;;5115975;28;20034;-73
2021/09/15 07:15:58;;;;;;;15.55;10.82;;;23.70;99.90;;;;;;5114683;28;20040;-75
2021/09/15 07:18:27;;;;;;;15.50;11.45;;;23.30;99.90;;;;;;5085979;28;20032;-83
2021/09/15 07:20:56;;;;;;;11.70;9.25;;;22.90;99.90;;;;;;5090937;28;20035;-78
2021/09/15 07:23:21;;;;;;;11.88;8.55;;;22.50;99.90;;;;;;5103442;28;20127;-83
2021/09/15 07:25:47;;;;;;;10.48;7.35;;;22.20;99.90;;;;;;5101617;28;20052;-83
2021/09/15 07:28:13;;;;;;;9.63;7.65;;;21.90;99.90;;;;;;5102089;28;20020;-81
2021/09/15 07:30:38;;;;;;;10.10;8.55;;;21.70;99.90;;;;;;5116622;28;20103;-84
2021/09/15 07:33:04;;;;;;;11.07;7.10;;;21.60;99.90;;;;;;5119355;28;20036;-81
2021/09/15 07:35:30;;;;;;;11.32;6.13;;;21.50;99.90;;;;;;5103333;28;20036;-79
2021/09/15 07:37:55;;;;;;;7.93;5.80;;;21.40;99.90;;;;;;5109738;28;20381;-75
2021/09/15 07:40:21;;;;;;;7.28;5.28;;;21.30;99.90;;;;;;5112355;28;20023;-82
2021/09/15 07:42:47;;;;;;;7.82;5.65;;;21.20;99.90;;;;;;5113161;28;20031;-80
2021/09/15 07:45:14;;;;;;;5.70;4.93;;;21.10;99.90;;;;;;5121760;28;20106;-76
2021/09/15 07:47:41;;;;;;;5.63;4.90;;;21.00;99.90;;;;;;5118766;28;20020;-77
2021/09/15 07:50:07;;;;;;;5.03;4.35;;;21.00;99.90;;;;;;5116829;28;20023;-78
2021/09/15 07:52:33;;;;;;;5.70;4.72;;;21.00;99.90;;;;;;5116288;28;20122;-74
2021/09/15 07:54:59;;;;;;;5.07;3.70;;;20.90;99.90;;;;;;5118118;28;20083;-74
2021/09/15 07:57:25;;;;;;;4.53;4.13;;;20.80;99.90;;;;;;5117335;28;20063;-76
2021/09/15 07:59:50;;;;;;;5.72;4.20;;;20.80;99.90;;;;;;5116701;28;20023;-78
2021/09/15 08:02:16;;;;;;;6.65;4.57;;;20.70;99.90;;;;;;5116221;28;20023;-77
2021/09/15 08:04:42;;;;;;;4.00;3.60;;;20.80;99.90;;;;;;5116021;28;20023;-75
2021/09/15 08:07:08;;;;;;;6.00;4.50;;;20.80;99.90;;;;;;5117364;28;20034;-77
2021/09/15 08:09:34;;;;;;;6.55;4.25;;;20.80;99.90;;;;;;5116537;28;20026;-75
2021/09/15 08:12:00;;;;;;;7.18;4.30;;;20.70;99.90;;;;;;5119156;28;20031;-75
2021/09/15 08:14:26;;;;;;;5.22;4.45;;;20.70;99.90;;;;;;5114835;28;20397;-74
2021/09/15 08:16:52;;;;;;;5.68;3.97;;;20.70;99.90;;;;;;5114018;28;20526;-74
2021/09/15 08:19:19;;;;;;;5.38;4.20;;;20.60;99.90;;;;;;5096602;28;20028;-73
2021/09/15 08:21:45;;;;;;;5.13;3.95;;;20.50;99.90;;;;;;5096731;28;20024;-75
2021/09/15 08:24:11;;;;;;;11.52;4.75;;;20.50;99.90;;;;;;5114684;28;20535;-74
2021/09/15 08:26:37;;;;;;;8.25;3.58;;;20.40;99.90;;;;;;5096181;28;20028;-74
2021/09/15 08:29:03;;;;;;;9.13;3.83;;;20.40;99.90;;;;;;5113096;28;20373;-72
2021/09/15 08:31:29;;;;;;;4.43;4.03;;;20.40;99.90;;;;;;5114202;28;20069;-73
2021/09/15 08:33:55;;;;;;;5.60;3.80;;;20.40;99.90;;;;;;5113149;28;20147;-72
2021/09/15 08:36:20;;;;;;;6.40;3.42;;;20.40;99.90;;;;;;5113423;28;20406;-74
2021/09/15 08:38:46;;;;;;;5.47;3.05;;;20.40;99.90;;;;;;5079458;28;20028;-74
2021/09/15 08:41:14;;;;;;;5.32;3.22;;;20.50;99.90;;;;;;5113366;28;20393;-77
2021/09/15 08:43:40;;;;;;;10.82;3.22;;;20.60;99.90;;;;;;5095955;28;20020;-75
2021/09/15 08:46:13;;;;;;;7.60;3.78;;;20.70;99.90;;;;;;5113478;28;20431;-75
2021/09/15 08:48:40;;;;;;;8.80;3.05;;;20.90;99.90;;;;;;5112951;28;20023;-73
2021/09/15 08:51:12;;;;;;;5.50;3.10;;;21.10;99.90;;;;;;5095819;28;20020;-74
2021/09/15 08:53:39;;;;;;;4.53;2.55;;;21.20;99.90;;;;;;5112589;28;20044;-73
2021/09/15 08:56:05;;;;;;;4.25;2.50;;;21.40;99.90;;;;;;5095713;28;20032;-73
2021/09/15 08:58:31;;;;;;;6.78;3.00;;;21.60;99.90;;;;;;5095725;28;20023;-73
2021/09/15 09:01:28;;;;;;;3.33;2.30;;;21.80;99.90;;;;;;5078424;28;20506;-74
2021/09/15 09:03:57;;;;;;;2.67;2.20;;;22.20;99.90;;;;;;5112592;28;20027;-73
2021/09/15 09:06:33;;;;;;;4.70;2.78;;;22.50;99.90;;;;;;5112790;28;20443;-75
2021/09/15 09:09:02;;;;;;;5.30;2.63;;;22.70;99.90;;;;;;5096863;28;20542;-76
2021/09/15 09:11:31;;;;;;;18.77;2.40;;;22.80;99.90;;;;;;5095660;28;20028;-74
2021/09/15 09:14:03;;;;;;;4.32;2.80;;;22.80;99.90;;;;;;5112927;28;20020;-81
2021/09/15 09:16:44;;;;;;;3.03;2.33;;;22.90;99.90;;;;;;5113011;28;20472;-76
2021/09/15 09:19:13;;;;;;;12.52;2.40;;;23.00;99.90;;;;;;5096880;28;20034;-81
2021/09/15 09:21:41;;;;;;;6.00;2.00;;;23.00;99.90;;;;;;5095949;28;20016;-73
2021/09/15 09:24:09;;;;;;;4.20;1.88;;;23.00;99.90;;;;;;5112527;28;20370;-76
2021/09/15 09:26:48;;;;;;;6.07;2.33;;;23.00;99.90;;;;;;5112876;28;20015;-76
2021/09/15 09:29:36;;;;;;;8.18;1.83;;;23.10;99.90;;;;;;5112659;28;20027;-78
2021/09/15 09:32:13;;;;;;;2.25;1.23;;;23.10;99.90;;;;;;5112000;28;20118;-77
2021/09/15 09:34:44;;;;;;;2.85;1.35;;;23.20;99.90;;;;;;5095933;28;20038;-78
2021/09/15 09:37:18;;;;;;;4.28;2.75;;;23.30;99.90;;;;;;5095569;28;20027;-73
2021/09/15 09:39:55;;;;;;;3.42;1.40;;;23.50;99.90;;;;;;5112528;28;20035;-74
2021/09/15 09:42:24;;;;;;;3.60;1.00;;;23.70;99.90;;;;;;5112664;28;20474;-78
2021/09/15 09:44:51;;;;;;;5.68;1.55;;;23.70;99.90;;;;;;5113400;28;20110;-72
2021/09/15 09:47:21;;;;;;;6.53;1.60;;;23.80;99.90;;;;;;5112753;28;20012;-73
2021/09/15 09:50:06;;;;;;;5.28;1.17;;;23.90;99.90;;;;;;5095297;28;20049;-75
2021/09/15 09:53:08;;;;;;;2.90;1.33;;;24.00;99.90;;;;;;5095143;28;20023;-75
2021/09/15 09:55:36;;;;;;;6.10;1.20;;;24.00;99.90;;;;;;5112056;28;20065;-75
2021/09/15 09:58:04;;;;;;;2.03;1.08;;;24.00;99.90;;;;;;5095203;28;20065;-76
2021/09/15 10:00:30;;;;;;;3.03;1.00;;;24.00;99.90;;;;;;5095428;28;20028;-76
2021/09/15 10:02:58;;;;;;;4.47;1.00;;;23.80;99.90;;;;;;5112272;28;20023;-74
2021/09/15 10:05:24;;;;;;;5.28;1.33;;;23.70;99.90;;;;;;5095032;28;20055;-73
2021/09/15 10:07:51;;;;;;;3.53;1.13;;;23.60;99.90;;;;;;5112022;28;20043;-72
2021/09/15 10:10:18;;;;;;;3.78;1.20;;;23.60;99.90;;;;;;5112011;28;20023;-73
2021/09/15 10:12:45;;;;;;;2.88;1.25;;;23.60;99.90;;;;;;5097114;28;20016;-76
2021/09/15 10:15:12;;;;;;;3.72;1.42;;;23.70;99.90;;;;;;5117682;28;20047;-81
2021/09/15 10:17:44;;;;;;;4.95;1.55;;;23.90;99.90;;;;;;5085678;28;20034;-76
2021/09/15 10:20:12;;;;;;;4.28;1.42;;;24.00;99.90;;;;;;5102584;28;20471;-78
2021/09/15 10:22:41;;;;;;;3.65;1.33;;;24.00;99.90;;;;;;5121312;28;20077;-80
2021/09/15 10:25:08;;;;;;;4.53;1.10;;;24.00;99.90;;;;;;5103442;28;20020;-76
2021/09/15 10:27:59;;;;;;;4.07;1.48;;;23.80;99.90;;;;;;5099779;28;20055;-84
2021/09/15 10:30:44;;;;;;;1.73;1.00;;;23.70;99.90;;;;;;5116616;28;20032;-80
2021/09/15 10:33:35;;;;;;;3.15;0.70;;;23.50;99.90;;;;;;5121288;28;20032;-83
2021/09/15 10:36:00;;;;;;;9.52;2.47;;;23.30;99.90;;;;;;5117040;28;20042;-78
2021/09/15 10:38:51;;;;;;;4.70;1.33;;;23.10;99.90;;;;;;5116982;28;20019;-82
2021/09/15 10:41:37;;;;;;;5.38;2.25;;;23.10;99.90;;;;;;5118681;28;20038;-81
2021/09/15 10:44:13;;;;;;;2.35;1.08;;;23.20;99.90;;;;;;5118597;28;20016;-77
2021/09/15 10:46:42;;;;;;;2.28;1.30;;;23.40;99.90;;;;;;5098983;28;20044;-79
2021/09/15 10:49:22;;;;;;;4.45;1.98;;;23.50;99.90;;;;;;5081743;28;20027;-79
2021/09/15 10:52:07;;;;;;;2.97;1.33;;;23.80;99.90;;;;;;5115620;28;20081;-80
2021/09/15 10:54:52;;;;;;;;;;;24.30;99.90;;;;;;5117093;28;20111;-78
2021/09/15 10:57:19;;;;;;;2.85;1.27;;;24.90;99.90;;;;;;5098069;28;19994;-75
2021/09/15 10:59:56;;;;;;;5.93;1.55;;;25.40;99.90;;;;;;5115768;28;20024;-75
2021/09/15 11:02:26;;;;;;;4.50;1.88;;;25.60;99.90;;;;;;5115459;28;20020;-75
2021/09/15 11:04:52;;;;;;;3.80;1.45;;;25.70;99.90;;;;;;5115547;28;20185;-73
2021/09/15 11:07:45;;;;;;;3.03;1.50;;;25.60;99.90;;;;;;5098268;28;20541;-76
2021/09/15 11:10:34;;;;;;;3.05;1.80;;;25.50;99.90;;;;;;5115796;28;20062;-72
2021/09/15 11:13:02;;;;;;;5.65;1.80;;;25.30;99.90;;;;;;5117016;27;20030;-73
2021/09/15 11:15:29;;;;;;;5.03;1.80;;;25.10;99.90;;;;;;5098966;28;20039;-73
2021/09/15 11:17:55;;;;;;;2.22;1.60;;;25.10;99.90;;;;;;5097976;28;20024;-73
2021/09/15 11:20:22;;;;;;;3.47;2.10;;;25.20;99.90;;;;;;5098119;28;20032;-76
2021/09/15 11:22:49;;;;;;;3.53;2.00;;;25.20;99.90;;;;;;5099774;28;20030;-76
2021/09/15 11:25:20;;;;;;;2.60;2.35;;;25.30;99.90;;;;;;5098606;28;20018;-77
2021/09/15 11:28:12;;;;;;;5.72;2.47;;;25.40;99.90;;;;;;5116344;28;20027;-75
2021/09/15 11:30:43;;;;;;;4.25;2.67;;;25.50;99.90;;;;;;5101994;28;20034;-81
2021/09/15 11:33:09;;;;;;;4.00;2.92;;;25.60;99.90;;;;;;5111955;28;20073;-79
2021/09/15 11:35:38;;;;;;;4.07;2.80;;;25.80;99.90;;;;;;5129256;28;20051;-82
2021/09/15 11:38:06;;;;;;;5.38;2.90;;;25.80;99.90;;;;;;5114393;28;20045;-76
2021/09/15 11:40:33;;;;;;;5.93;2.78;;;26.00;99.90;;;;;;5109135;28;20024;-77
2021/09/15 11:43:08;;;;;;;4.63;2.88;;;26.00;99.90;;;;;;5121383;28;20015;-78
2021/09/15 11:45:35;;;;;;;3.63;3.28;;;26.30;99.90;;;;;;5129693;28;20035;-77
2021/09/15 11:48:01;;;;;;;5.63;3.38;;;26.40;99.90;;;;;;5127188;28;20083;-76
2021/09/15 11:50:33;;;;;;;4.30;3.35;;;26.40;99.90;;;;;;5109862;28;20477;-77
2021/09/15 11:53:08;;;;;;;4.57;3.15;;;26.40;99.90;;;;;;5119013;28;20012;-82
2021/09/15 11:55:46;;;;;;;4.70;4.15;;;26.10;99.90;;;;;;5066189;28;20051;-80
2021/09/15 11:58:14;;;;;;;4.72;3.58;;;25.60;99.90;;;;;;5062930;28;20027;-83
2021/09/15 12:00:40;;;;;;;8.85;4.57;;;25.20;99.90;;;;;;5061187;28;20410;-77
2021/09/15 12:03:07;;;;;;;8.48;4.68;;;24.90;99.90;;;;;;5076680;28;20027;-81
2021/09/15 12:05:33;;;;;;;8.20;4.82;;;24.60;99.90;;;;;;5059673;28;20033;-78
2021/09/15 12:08:00;;;;;;;6.28;4.25;;;24.30;99.90;;;;;;5076660;28;20044;-76
2021/09/15 12:10:26;;;;;;;7.10;3.13;;;24.00;99.90;;;;;;5074508;28;20032;-79
2021/09/15 12:12:52;;;;;;;7.35;2.88;;;23.70;99.90;;;;;;5074267;28;20035;-81
2021/09/15 12:15:18;;;;;;;12.10;2.28;;;23.30;99.90;;;;;;5074570;28;20032;-76
2021/09/15 12:17:54;;;;;;;6.78;1.38;;;23.00;99.90;;;;;;5074780;28;20398;-77
2021/09/15 12:20:41;;;;;;;6.63;1.35;;;22.80;99.90;;;;;;5074376;28;20024;-79
2021/09/15 12:23:07;;;;;;;3.15;1.20;;;22.70;99.90;;;;;;5075059;28;20034;-80
2021/09/15 12:25:33;;;;;;;11.38;1.95;;;22.50;99.90;;;;;;5078140;28;20554;-82
2021/09/15 12:27:59;;;;;;;6.72;1.38;;;22.50;99.90;;;;;;5064173;28;20078;-82
2021/09/15 12:30:24;;;;;;;6.30;1.35;;;22.70;99.90;;;;;;5061179;28;20496;-80
2021/09/15 12:32:59;;;;;;;6.60;1.50;;;22.90;99.90;;;;;;5078158;28;20033;-81
2021/09/15 12:35:33;;;;;;;5.80;1.83;;;23.00;99.90;;;;;;5079168;28;20024;-80
2021/09/15 12:38:08;;;;;;;4.50;1.55;;;23.30;99.90;;;;;;5077425;28;20099;-82
2021/09/15 12:40:35;;;;;;;5.22;1.70;;;23.40;99.90;;;;;;5080012;28;20033;-80
2021/09/15 12:43:03;;;;;;;5.38;1.52;;;23.30;99.90;;;;;;5077040;28;20011;-81
2021/09/15 12:45:30;;;;;;;6.60;1.75;;;23.30;99.90;;;;;;5077083;28;20024;-79
2021/09/15 12:47:55;;;;;;;6.03;1.10;;;23.30;99.90;;;;;;5057982;28;20085;-82